Tiempo atmosférico en la estación meteorológica de Santervás de la Vega, Villapún, Palencia (985 m.)



Fecha
DESCASC
Temp. máxima en grados centígrados (hora)
DESCASC
Temp. mínima en grados centígrados (hora)
DESCASC
Temp. media en grados centígrados
DESCASC
Racha de viento máxima en m/sg (hora)
DESCASC
Velocidad máxima media en intervalos de 10 minutos(hora)
DESCASC
Precipitaciones diarias en mm
DESCASC
Precipitaciones de 00:00 a 06:00 en mm
DESCASC
Precipitaciones de 06:00 a 12:00 en mm
DESCASC
Precipitaciones de 12:00 a 18:00 en mm
DESCASC
Precipitaciones de 18:00 a 24:00 en mm
DESCASC
27-01-2020 7.6 (17:30) 3.2 (00:00) 5.4 15.56 (20:10) 10 (20:10) 5.2 0 0.6 3.4 1.2
26-01-2020 4 (13:30) -1.4 (02:10) 1.3 6.39 (14:00) 4.17 (14:00) 0.2 0 0.2 0 0
25-01-2020 6.2 (15:20) -0.1 (00:00) 3 5 (13:40) 3.61 (12:50) 1 0 0 0.6 0.4
24-01-2020 6.5 (15:40) 2.6 (00:00) 4.5 3.06 (06:30) 2.5 (06:30) 1 0.2 0 0.6 0.2
23-01-2020 7.7 (16:40) -1.4 (-00:0) 3.1 4.17 (05:30) 2.78 (09:10) 0 0 0 0 0
22-01-2020 7.1 (14:30) 1.4 (00:00) 4.2 15.83 (05:10) 10.83 (01:30) 0.2 0 0.2 0 0
21-01-2020 6.6 (13:30) -0.5 (-00:0) 3 18.61 (05:20) 12.5 (10:40) 0.4 0 0 0.2 0.2
20-01-2020 2.1 (12:30) -1.5 (-00:0) 0.3 22.22 (03:20) 15.83 (03:20) 0 0 0 0 0
19-01-2020 5.2 (12:10) -0.8 (-00:0) 2.2 21.11 (14:20) 15.28 (15:00) 0.2 0 0.2 0 0
18-01-2020 6.9 (17:00) 0 (00:00) 3.5 11.67 (17:00) 6.11 (17:00) 6.2 0 0.6 5.6 0
17-01-2020 6.9 (14:00) 0.6 (00:00) 3.8 14.44 (03:50) 9.44 (03:50) 1.4 0.8 0.6 0 0
16-01-2020 10.2 (14:00) 5.9 (00:00) 8 16.11 (15:40) 9.72 (14:10) 0 0 0 0 0
15-01-2020 8.3 (16:30) 4.6 (00:00) 6.5 14.72 (11:30) 8.61 (11:30) 0.2 0 0.2 0 0
14-01-2020 5.7 (16:40) -0.3 (00:00) 2.7 11.67 (23:40) 7.22 (23:59) 0.2 0 0.2 0 0
13-01-2020 0.3 (15:00) -5.7 (-00:0) -2.7 5 (15:40) 3.61 (16:00) 0.2 0 0.2 0 0
12-01-2020 4.9 (17:10) -4.4 (07:30) 0.3 4.17 (00:40) 2.5 (00:10) 0 0 0 0 0
11-01-2020 7 (16:00) -3.4 (-00:0) 1.8 5.83 (15:30) 3.89 (03:00) 0 0 0 0 0
10-01-2020 7.8 (15:10) -0.9 (-00:0) 3.5 5.83 (00:10) 2.78 (00:10) 0 0 0 0 0
09-01-2020 8.1 (13:50) -0.2 (00:00) 4 9.72 (19:40) 6.11 (19:00) 0 0 0 0 0
08-01-2020 14.3 (15:40) -0.7 (-00:0) 6.8 5 (16:10) 3.06 (16:30) 0 0 0 0 0
07-01-2020 9.8 (14:30) -4 (-00:0) 2.9 4.17 (20:10) 2.78 (20:20) 0.2 0 0.2 0 0
06-01-2020 2.7 (14:30) -5.4 (-00:0) -1.4 4.44 (15:40) 3.06 (15:40) 0 0 0 0 0
05-01-2020 13.9 (16:30) -3.2 (-00:0) 5.3 7.5 (13:30) 5 (13:30) 0 0 0 0 0
04-01-2020 7 (16:50) -1.2 (-00:0) 2.9 5 (23:20) 3.61 (23:30) 0.2 0.2 0 0 0
03-01-2020 4.2 (16:00) -3.1 (-00:0) 0.5 2.78 (07:20) 1.67 (07:20) 0 0 0 0 0
02-01-2020 8.6 (15:20) -2.8 (-00:0) 2.9 3.61 (13:50) 2.5 (15:40) 0.2 0 0.2 0 0
01-01-2020 9.6 (16:30) -2.6 (-00:0) 3.5 4.17 (13:40) 2.78 (14:10) 0 0 0 0 0
31-12-2019 12.8 (15:00) -1.6 (-00:0) 5.6 3.33 (02:30) 2.78 (05:30) 0 0 0 0 0
30-12-2019 -- (--) -- (--) -- -- (--) -- (--) -- 0 0 -- 0

Gráficas

Temp. máximas Temp. mínimas Temp. medias Precipitaciones Rachas de viento máximas Velocidades máximas media en intervalos de 10 minutos

Datos horarios

Fecha y hora oficial Temperatura (ºC) Velocidad del viento (km/h) Dirección del viento Racha (km/h) Dirección de racha Precipitación (mm) Presión (hPa) Tendencia (hPa) Humedad (%)
2020-01-28 23:00:00 6.3 0 Calma 3 Noroeste 0 -- -- 100
2020-01-28 22:00:00 5.9 0 Calma 4 Noroeste 0 -- -- 100
2020-01-28 21:00:00 5.5 3 Noroeste 9 Noroeste 0 -- -- 99
2020-01-28 20:00:00 5.7 4 Noroeste 8 Noroeste 0 -- -- 98
2020-01-28 19:00:00 6 5 Noroeste 12 Oeste 0 -- -- 96
2020-01-28 18:00:00 7 6 Noroeste 21 Noroeste 0 -- -- 91
2020-01-28 17:00:00 7.9 12 Noroeste 22 Noroeste 0 -- -- 79
2020-01-28 16:00:00 8 13 Noroeste 25 Noroeste 0 -- -- 79
2020-01-28 15:00:00 7.9 18 Noroeste 28 Oeste 0 -- -- 77
2020-01-28 14:00:00 7.7 17 Noroeste 30 Noroeste 0 -- -- 80
2020-01-28 13:00:00 7.2 19 Noroeste 31 Noroeste 0 -- -- 84
2020-01-28 12:00:00 6.4 12 Noroeste 23 Noroeste 0 -- -- 87
2020-01-28 11:00:00 5.6 12 Noroeste 20 Noroeste 0 -- -- 89
2020-01-28 10:00:00 4.5 5 Noroeste 19 Noroeste 0 -- -- 92
2020-01-28 09:00:00 3.9 6 Oeste 24 Norte 0 -- -- 91
2020-01-28 08:00:00 4.4 13 Noroeste 28 Noroeste 0 -- -- 97
2020-01-28 07:00:00 5.3 14 Noroeste 35 Noroeste 0 -- -- 98
2020-01-28 06:00:00 5.8 23 Noroeste 37 Oeste 0 -- -- 100
2020-01-28 05:00:00 6.8 23 Noroeste 40 Oeste 0 -- -- 100
2020-01-28 04:00:00 7 23 Noroeste 35 Oeste 0 -- -- 100
2020-01-28 03:00:00 6.8 27 Oeste 45 Oeste 0 -- -- 100
2020-01-28 02:00:00 6.8 26 Noroeste 55 Oeste 0.2 -- -- 100
2020-01-28 01:00:00 6.7 35 Oeste 52 Noroeste 0.4 -- -- 100
2020-01-28 00:00:00 6.6 29 Oeste 49 Oeste 1 -- -- 100
2020-01-27 23:00:00 6.1 27 Oeste 48 Oeste 0.2 -- -- 100
2020-01-27 22:00:00 6.3 28 Oeste 47 Noroeste 0 -- -- 95
2020-01-27 21:00:00 6.3 31 Oeste 56 Oeste 0 -- -- 93
2020-01-27 20:00:00 7 33 Oeste 50 Oeste 0 -- -- 99
2020-01-27 19:00:00 7.2 26 Oeste 38 Oeste 0 -- -- 97
2020-01-27 18:00:00 7.5 27 Oeste 44 Oeste 0 -- -- 95
2020-01-27 17:00:00 7.5 28 Oeste 48 Oeste 0 -- -- 98
2020-01-27 16:00:00 7.1 29 Oeste 44 Oeste 0.4 -- -- 100
2020-01-27 15:00:00 6.7 26 Oeste 42 Oeste 0.8 -- -- 100
2020-01-27 14:00:00 6.3 30 Oeste 46 Oeste 1 -- -- 100
2020-01-27 13:00:00 5.6 24 Oeste 41 Oeste 1.2 -- -- 100
2020-01-27 12:00:00 4.6 24 Oeste 45 Oeste 0.2 -- -- 100
2020-01-27 11:00:00 4.1 26 Oeste 44 Oeste 0.2 -- -- 100
2020-01-27 10:00:00 3.9 26 Oeste 43 Oeste 0.2 -- -- 100
2020-01-27 09:00:00 3.7 23 Oeste 45 Oeste 0 -- -- 100
2020-01-27 08:00:00 3.6 19 Oeste 35 Oeste 0 -- -- 100
2020-01-27 07:00:00 3.3 15 Oeste 26 Oeste 0 -- -- 100
2020-01-27 06:00:00 3.7 13 Oeste 26 Oeste 0 -- -- 100
2020-01-27 05:00:00 3.7 12 Oeste 24 Oeste 0 -- -- 100
2020-01-27 04:00:00 3.8 15 Oeste 25 Oeste 0 -- -- 100
2020-01-27 03:00:00 3.8 17 Oeste 30 Oeste 0 -- -- 99
2020-01-27 02:00:00 3.9 18 Oeste 29 Oeste 0 -- -- 99
2020-01-27 01:00:00 3.3 10 Oeste 17 Oeste 0 -- -- 99
2020-01-27 00:00:00 3.2 4 Noroeste 16 Oeste 0 -- -- 99
2020-01-26 23:00:00 3.1 10 Oeste 17 Oeste 0 -- -- 100
2020-01-26 22:00:00 2.4 2 Oeste 8 Oeste 0 -- -- 100
2020-01-26 21:00:00 2.6 0 Calma 4 Sudoeste 0 -- -- 100
2020-01-26 20:00:00 2.5 0 Calma 10 Sudoeste 0 -- -- 100
2020-01-26 19:00:00 2.2 8 Oeste 13 Oeste 0 -- -- 100
2020-01-26 18:00:00 1.5 8 Oeste 17 Oeste 0 -- -- 100
2020-01-26 17:00:00 1.2 13 Oeste 19 Oeste 0 -- -- 100
2020-01-26 16:00:00 1.7 12 Oeste 17 Oeste 0 -- -- 98
2020-01-26 15:00:00 2.7 10 Oeste 22 Oeste 0 -- -- 97
2020-01-26 14:00:00 4 15 Oeste 23 Oeste 0 -- -- 92
2020-01-26 13:00:00 3.6 11 Oeste 19 Oeste 0 -- -- 100
2020-01-26 12:00:00 2.1 9 Noroeste 16 Noroeste 0 -- -- 100
2020-01-26 11:00:00 1.5 9 Noroeste 14 Noroeste 0 -- -- 100
2020-01-26 10:00:00 0.6 4 Noroeste 12 Noroeste 0.2 -- -- 100
2020-01-26 09:00:00 -0.1 3 Noroeste 10 Noroeste 0 -- -- 100
2020-01-26 08:00:00 0.7 3 Noroeste 8 Noroeste 0 -- -- 100
2020-01-26 07:00:00 1 3 Noroeste 12 Noroeste 0 -- -- 100
2020-01-26 06:00:00 0.1 4 Noroeste 10 Norte 0 -- -- 100
2020-01-26 05:00:00 0.4 5 Norte 9 Norte 0 -- -- 100
2020-01-26 04:00:00 -0.2 4 Noroeste 12 Oeste 0 -- -- 100
2020-01-26 03:00:00 -1.2 3 Noroeste 8 Oeste 0 -- -- 100
2020-01-26 02:00:00 -1.3 0 Calma -- -- 0 -- -- 99
2020-01-26 01:00:00 -1.3 0 Calma -- -- 0 -- -- 98
2020-01-26 00:00:00 -0.1 0 Calma 6 Nordeste 0 -- -- 96
2020-01-25 23:00:00 2.1 0 Calma 6 Nordeste 0 -- -- 97
2020-01-25 22:00:00 3.1 0 Calma 6 Nordeste 0 -- -- 96
2020-01-25 21:00:00 3.4 0 Calma 6 Este 0 -- -- 96
2020-01-25 20:00:00 3.9 3 Este 5 Este 0 -- -- 95
2020-01-25 19:00:00 4.2 0 Calma 4 Este 0.4 -- -- 93
2020-01-25 18:00:00 5 0 Calma 8 Sudeste 0.6 -- -- 91
2020-01-25 17:00:00 5.6 6 Sudeste 11 Sudeste 0 -- -- 85
2020-01-25 16:00:00 6 5 Sudeste 14 Este 0 -- -- 79
2020-01-25 15:00:00 6.1 10 Este 17 Sudeste 0 -- -- 79
2020-01-25 14:00:00 5.7 10 Sudeste 18 Sudeste 0 -- -- 84
2020-01-25 13:00:00 5 12 Sudeste 18 Sudeste 0 -- -- 90
2020-01-25 12:00:00 4.6 10 Sudeste 17 Sudeste 0 -- -- 94
2020-01-25 11:00:00 4.1 7 Sudeste 10 Sudeste 0 -- -- 100
2020-01-25 10:00:00 3.3 6 Este 10 Este 0 -- -- 100
2020-01-25 09:00:00 2.8 8 Este 11 Este 0 -- -- 100
2020-01-25 08:00:00 2.8 6 Este 8 Este 0 -- -- 100
2020-01-25 07:00:00 2.8 5 Este 10 Este 0 -- -- 100
2020-01-25 06:00:00 2.4 5 Este 7 Este 0 -- -- 100
2020-01-25 05:00:00 3 4 Este 6 Nordeste 0 -- -- 100
2020-01-25 04:00:00 3.4 4 Sudeste 6 Sudeste 0 -- -- 100
2020-01-25 03:00:00 3.4 0 Calma 6 Sudeste 0 -- -- 100
2020-01-25 02:00:00 3.4 5 Sudeste 8 Sudeste 0 -- -- 100
2020-01-25 01:00:00 3.3 0 Calma -- -- 0 -- -- 99
2020-01-25 00:00:00 3.9 0 Calma 7 Sur 0 -- -- 99
2020-01-24 23:00:00 3.5 0 Calma -- -- 0 -- -- 98
2020-01-24 22:00:00 4.2 0 Calma -- -- 0 -- -- 99
2020-01-24 21:00:00 4.4 0 Calma 5 Oeste 0 -- -- 98
2020-01-24 20:00:00 4.7 2 Oeste 5 Noroeste 0 -- -- 97
2020-01-24 19:00:00 4.9 2 Noroeste 4 Noroeste 0.2 -- -- 96
2020-01-24 18:00:00 5.5 0 Calma 6 Oeste 0.6 -- -- 91
2020-01-24 17:00:00 6.2 0 Calma 5 Noroeste 0 -- -- 83
2020-01-24 16:00:00 6.5 3 Oeste 11 Noroeste 0 -- -- 82
2020-01-24 15:00:00 6.1 5 Oeste 9 Oeste 0 -- -- 85
2020-01-24 14:00:00 5.2 3 Sur 5 Sur 0 -- -- 90
2020-01-24 13:00:00 4.8 4 Sudeste 10 Sur 0 -- -- 92
2020-01-24 12:00:00 4.5 3 Sudeste 8 Sudeste 0 -- -- 91
2020-01-24 11:00:00 3.5 0 Calma 5 Este 0 -- -- 93
2020-01-24 10:00:00 3.2 4 Este 6 Nordeste 0 -- -- 96
2020-01-24 09:00:00 2.8 4 Este 6 Este 0 -- -- 97
2020-01-24 08:00:00 2.7 4 Este 8 Este 0 -- -- 97
2020-01-24 07:00:00 2.7 5 Este 11 Nordeste 0 -- -- 98
2020-01-24 06:00:00 2.7 8 Nordeste 10 Nordeste 0 -- -- 98
2020-01-24 05:00:00 2.6 5 Este 9 Este 0 -- -- 98
2020-01-24 04:00:00 2.8 7 Este 10 Nordeste 0.2 -- -- 98
2020-01-24 03:00:00 3 3 Este 6 Sur 0 -- -- 96
2020-01-24 02:00:00 3.2 5 Sudeste 7 Sur 0 -- -- 94
2020-01-24 01:00:00 3.2 4 Este 5 Este 0 -- -- 93
2020-01-24 00:00:00 3 3 Este 6 Este 0 -- -- 92
2020-01-23 23:00:00 2.9 6 Nordeste 9 Nordeste 0 -- -- 92
2020-01-23 22:00:00 2.5 7 Nordeste 10 Nordeste 0 -- -- 94
2020-01-23 21:00:00 2.5 5 Nordeste 7 Nordeste 0 -- -- 94
2020-01-23 20:00:00 2.5 3 Sur 5 Sur 0 -- -- 92
2020-01-23 19:00:00 3.5 2 Sur 4 Sur 0 -- -- 87
2020-01-23 18:00:00 5.1 4 Sudeste 11 Sur 0 -- -- 83
2020-01-23 17:00:00 7.5 4 Sur 11 Sur 0 -- -- 71
2020-01-23 16:00:00 7.5 4 Sur 12 Este 0 -- -- 69
2020-01-23 15:00:00 6.3 8 Este 13 Este 0 -- -- 73
2020-01-23 14:00:00 4.5 2 Sur 7 Sudeste 0 -- -- 90
2020-01-23 13:00:00 2.6 4 Sur 9 Sudoeste 0 -- -- 96
2020-01-23 12:00:00 1.7 7 Sur 12 Sur 0 -- -- 96
2020-01-23 11:00:00 2.8 8 Este 11 Este 0 -- -- 94
2020-01-23 10:00:00 0.2 9 Este 13 Este 0 -- -- 100
2020-01-23 09:00:00 -1 10 Este 12 Este 0 -- -- 100
2020-01-23 08:00:00 -0.7 8 Este 11 Este 0 -- -- 100
2020-01-23 07:00:00 -1.1 5 Este 11 Este 0 -- -- 99
2020-01-23 06:00:00 -0.3 10 Este 15 Este 0 -- -- 99
2020-01-23 05:00:00 0 9 Este 12 Este 0 -- -- 96
2020-01-23 04:00:00 0.4 7 Este 10 Este 0 -- -- 97
2020-01-23 03:00:00 1 5 Este 10 Este 0 -- -- 97
2020-01-23 02:00:00 0.7 8 Este 11 Este 0 -- -- 96
2020-01-23 01:00:00 1.8 5 Este 12 Este 0 -- -- 93
2020-01-23 00:00:00 2.2 9 Este 17 Este 0 -- -- 95
2020-01-22 23:00:00 2.2 14 Este 23 Este 0 -- -- 92
2020-01-22 22:00:00 2.4 13 Este 22 Este 0 -- -- 93
2020-01-22 21:00:00 1.9 14 Este 22 Este 0 -- -- 93
2020-01-22 20:00:00 2.4 14 Este 20 Este 0 -- -- 92
2020-01-22 19:00:00 3.2 9 Este 18 Sudeste 0 -- -- 87
2020-01-22 18:00:00 4.9 5 Este 18 Sudeste 0 -- -- 84
2020-01-22 17:00:00 6.1 9 Este 21 Este 0 -- -- 74
2020-01-22 16:00:00 6.4 13 Este 23 Este 0 -- -- 74
2020-01-22 15:00:00 6.8 16 Este 26 Este 0 -- -- 76
2020-01-22 14:00:00 6.5 19 Este 28 Este 0 -- -- 79
2020-01-22 13:00:00 5.8 21 Este 30 Este 0 -- -- 81
2020-01-22 12:00:00 5.6 17 Este 31 Este 0 -- -- 84
2020-01-22 11:00:00 4.1 23 Este 35 Este 0 -- -- 90
2020-01-22 10:00:00 3.4 22 Este 34 Este 0 -- -- 92
2020-01-22 09:00:00 3.2 17 Sudeste 29 Este 0 -- -- 93
2020-01-22 08:00:00 3.6 17 Este 32 Este 0.2 -- -- 89
2020-01-22 07:00:00 3.6 26 Este 49 Este 0 -- -- 89
2020-01-22 06:00:00 4.1 31 Este 57 Este 0 -- -- 84
2020-01-22 05:00:00 4.2 36 Este 54 Este 0 -- -- 82
2020-01-22 04:00:00 4 29 Este 47 Este 0 -- -- 81
2020-01-22 03:00:00 4 33 Este 48 Este 0 -- -- 81
2020-01-22 02:00:00 3.7 37 Este 57 Este 0 -- -- 84
2020-01-22 01:00:00 3.4 32 Este 48 Este 0 -- -- 82
2020-01-22 00:00:00 3.2 26 Este 42 Este 0 -- -- 82
2020-01-21 23:00:00 3.2 27 Este 42 Este 0 -- -- 80
2020-01-21 22:00:00 4.1 30 Este 44 Este 0 -- -- 73
2020-01-21 21:00:00 3.8 32 Este 52 Este 0.2 -- -- 73
2020-01-21 20:00:00 4.3 31 Este 48 Este 0 -- -- 72
2020-01-21 19:00:00 3.4 26 Este 41 Este 0 -- -- 76
2020-01-21 18:00:00 2.5 34 Este 50 Este 0 -- -- 81
2020-01-21 17:00:00 2.3 27 Este 66 Este 0.2 -- -- 85
2020-01-21 16:00:00 4.9 31 Este 49 Este 0 -- -- 74
2020-01-21 15:00:00 5.2 37 Este 56 Este 0 -- -- 69
2020-01-21 14:00:00 6.2 30 Este 52 Este 0 -- -- 64
2020-01-21 13:00:00 5.8 38 Este 58 Este 0 -- -- 63
2020-01-21 12:00:00 2.1 33 Este 48 Este 0 -- -- 75
2020-01-21 11:00:00 2.3 36 Este 62 Este 0 -- -- 73
2020-01-21 10:00:00 1.9 29 Este 49 Este 0 -- -- 73
2020-01-21 09:00:00 1.1 29 Este 56 Este 0 -- -- 74
2020-01-21 08:00:00 1.1 31 Este 45 Este 0 -- -- 73
2020-01-21 07:00:00 0.7 29 Este 54 Este 0 -- -- 74
2020-01-21 06:00:00 0.7 33 Este 67 Este 0 -- -- 75
2020-01-21 05:00:00 0.7 32 Este 53 Este 0 -- -- 76
2020-01-21 04:00:00 0.3 25 Este 45 Este 0 -- -- 79
2020-01-21 03:00:00 -0.1 27 Este 44 Este 0 -- -- 81
2020-01-21 02:00:00 -0.1 27 Este 40 Este 0 -- -- 83
2020-01-21 01:00:00 -0.1 30 Este 50 Este 0 -- -- 82
2020-01-21 00:00:00 -0.5 31 Este 51 Este 0 -- -- 84
2020-01-20 23:00:00 -0.5 37 Este 55 Este 0 -- -- 82
2020-01-20 22:00:00 -0.3 39 Este 52 Este 0 -- -- 78
2020-01-20 21:00:00 0.1 35 Este 53 Este 0 -- -- 74
2020-01-20 20:00:00 0.3 27 Este 50 Este 0 -- -- 71
2020-01-20 19:00:00 0.5 31 Este 51 Este 0 -- -- 68
2020-01-20 18:00:00 1 25 Este 38 Este 0 -- -- 64
2020-01-20 17:00:00 1.3 21 Este 47 Este 0 -- -- 55
2020-01-20 16:00:00 1.5 30 Este 57 Este 0 -- -- 53
2020-01-20 15:00:00 1.4 30 Este 54 Este 0 -- -- 57
2020-01-20 14:00:00 1.5 30 Este 70 Este 0 -- -- 58
2020-01-20 13:00:00 2 40 Este 68 Este 0 -- -- 54
2020-01-20 12:00:00 1.5 32 Este 74 Este 0 -- -- 54
2020-01-20 11:00:00 0.7 47 Este 69 Este 0 -- -- 55
2020-01-20 10:00:00 -0.3 51 Este 73 Este 0 -- -- 57
2020-01-20 09:00:00 -1.1 49 Este 64 Este 0 -- -- 69
2020-01-20 08:00:00 -1.5 32 Este 50 Este 0 -- -- 72
2020-01-20 07:00:00 -1.1 36 Este 55 Este 0 -- -- 74
2020-01-20 06:00:00 -1 27 Este 63 Este 0 -- -- 71
2020-01-20 05:00:00 -0.6 45 Este 73 Este 0 -- -- 67
2020-01-20 04:00:00 -0.3 53 Este 80 Nordeste 0 -- -- 66
2020-01-20 03:00:00 -0.7 44 Este 71 Este 0 -- -- 73
2020-01-20 02:00:00 -0.2 50 Este 71 Este 0 -- -- 63
2020-01-20 01:00:00 -0.5 36 Este 69 Este 0 -- -- 69
2020-01-20 00:00:00 -0.2 53 Este 74 Este 0 -- -- 70
2020-01-19 23:00:00 -0.1 43 Este 68 Este 0 -- -- 67
2020-01-19 22:00:00 -0.4 47 Este 72 Este 0 -- -- 75
2020-01-19 21:00:00 -0.8 52 Este 72 Nordeste 0 -- -- 85
2020-01-19 20:00:00 0.8 44 Este 63 Este 0 -- -- 59
2020-01-19 19:00:00 0.9 44 Este 68 Este 0 -- -- 61
2020-01-19 18:00:00 1.3 49 Este 71 Este 0 -- -- 57
2020-01-19 17:00:00 2.6 47 Nordeste 66 Nordeste 0 -- -- 56
2020-01-19 16:00:00 3.6 50 Nordeste 73 Nordeste 0 -- -- 59
2020-01-19 15:00:00 4.3 55 Nordeste 76 Nordeste 0 -- -- 53
2020-01-19 14:00:00 5 50 Nordeste 69 Nordeste 0 -- -- 52
2020-01-19 13:00:00 5 46 Nordeste 71 Nordeste 0 -- -- 57
2020-01-19 12:00:00 4.9 50 Nordeste 70 Este 0.2 -- -- 58
2020-01-19 11:00:00 4.4 16 Este 45 Este 0 -- -- 65
2020-01-19 10:00:00 3.5 35 Este 56 Nordeste 0 -- -- 67
2020-01-19 09:00:00 1.8 16 Este 27 Este 0 -- -- 89
2020-01-19 08:00:00 1.7 5 Nordeste 19 Este 0 -- -- 92
2020-01-19 07:00:00 2 6 Nordeste 18 Este 0 -- -- 95
2020-01-19 06:00:00 1 8 Nordeste 12 Nordeste 0 -- -- 96
2020-01-19 05:00:00 1.4 5 Norte 10 Nordeste 0 -- -- 98
2020-01-19 04:00:00 0.3 4 Nordeste 6 Nordeste 0 -- -- 99
2020-01-19 03:00:00 1.4 7 Nordeste 20 Norte 0 -- -- 98
2020-01-19 02:00:00 0.2 3 Nordeste 11 Nordeste 0 -- -- 99
2020-01-19 01:00:00 0.6 8 Nordeste 10 Nordeste 0 -- -- 99
2020-01-19 00:00:00 0.7 4 Nordeste 11 Noroeste 0 -- -- 99
2020-01-18 23:00:00 1 7 Noroeste 10 Noroeste 0 -- -- 100
2020-01-18 22:00:00 0.6 0 Calma -- -- 0 -- -- 100
2020-01-18 21:00:00 1.1 0 Calma 12 Noroeste 0 -- -- 98
2020-01-18 20:00:00 2.6 4 Noroeste 17 Noroeste 0 -- -- 98
2020-01-18 19:00:00 4.1 10 Noroeste 17 Noroeste 0 -- -- 99
2020-01-18 18:00:00 5.8 6 Norte 37 Noroeste 2.6 -- -- 99
2020-01-18 17:00:00 6.9 22 Noroeste 42 Noroeste 1.4 -- -- 100
2020-01-18 16:00:00 6.4 5 Norte 26 Oeste 1 -- -- 100
2020-01-18 15:00:00 6.1 15 Oeste 33 Oeste 0.2 -- -- 100
2020-01-18 14:00:00 5.8 17 Oeste 28 Oeste 0.4 -- -- 100
2020-01-18 13:00:00 4.6 12 Sudoeste 20 Sudoeste 0 -- -- 100
2020-01-18 12:00:00 3.8 6 Sudoeste 13 Sudoeste 0.2 -- -- 100
2020-01-18 11:00:00 3.1 8 Sudoeste 12 Sudoeste 0.2 -- -- 99
2020-01-18 10:00:00 2.2 3 Sur 6 Sur 0.2 -- -- 98
2020-01-18 09:00:00 1.9 0 Calma 5 Sur 0 -- -- 95
2020-01-18 08:00:00 1.6 0 Calma 4 Este 0 -- -- 93
2020-01-18 07:00:00 1.4 3 Nordeste 6 Este 0 -- -- 94
2020-01-18 06:00:00 1.7 0 Calma -- -- 0 -- -- 95
2020-01-18 05:00:00 1.5 0 Calma 9 Sudoeste 0 -- -- 94
2020-01-18 04:00:00 1.5 5 Sudoeste 9 Sur 0 -- -- 92
2020-01-18 03:00:00 0.9 0 Calma -- -- 0 -- -- 93
2020-01-18 02:00:00 0.8 0 Calma -- -- 0 -- -- 92
2020-01-18 01:00:00 0.9 0 Calma 17 Nordeste 0 -- -- 91
2020-01-18 00:00:00 0.6 0 Calma -- -- 0 -- -- 90
2020-01-17 23:00:00 1 0 Calma 8 Este 0 -- -- 87
2020-01-17 22:00:00 1.6 3 Noroeste 9 Noroeste 0 -- -- 84
2020-01-17 21:00:00 2.4 3 Noroeste 12 Noroeste 0 -- -- 79
2020-01-17 20:00:00 2.5 5 Oeste 12 Noroeste 0 -- -- 80
2020-01-17 19:00:00 3.1 9 Noroeste 14 Noroeste 0 -- -- 77
2020-01-17 18:00:00 4.4 8 Noroeste 24 Noroeste 0 -- -- 71
2020-01-17 17:00:00 5.4 13 Oeste 34 Noroeste 0 -- -- 63
2020-01-17 16:00:00 5.8 21 Noroeste 39 Oeste 0 -- -- 64
2020-01-17 15:00:00 5.9 23 Oeste 39 Oeste 0 -- -- 66
2020-01-17 14:00:00 6.9 21 Noroeste 45 Noroeste 0 -- -- 62
2020-01-17 13:00:00 5.8 32 Noroeste 49 Noroeste 0 -- -- 73
2020-01-17 12:00:00 5.5 24 Noroeste 40 Noroeste 0 -- -- 80
2020-01-17 11:00:00 4.1 19 Noroeste 31 Noroeste 0 -- -- 88
2020-01-17 10:00:00 3.2 16 Noroeste 24 Noroeste 0 -- -- 92
2020-01-17 09:00:00 1.8 13 Noroeste 27 Noroeste 0 -- -- 95
2020-01-17 08:00:00 2.9 14 Noroeste 22 Noroeste 0 -- -- 99
2020-01-17 07:00:00 3.7 14 Noroeste 30 Noroeste 0.6 -- -- 98
2020-01-17 06:00:00 4.2 12 Noroeste 22 Noroeste 0 -- -- 100
2020-01-17 05:00:00 4.1 15 Noroeste 42 Oeste 0.4 -- -- 97
2020-01-17 04:00:00 4.9 31 Oeste 52 Oeste 0.4 -- -- 98
2020-01-17 03:00:00 5.1 22 Oeste 39 Oeste 0 -- -- 99
2020-01-17 02:00:00 5.3 26 Oeste 41 Oeste 0 -- -- 98
2020-01-17 01:00:00 5.6 21 Oeste 42 Oeste 0 -- -- 97
2020-01-17 00:00:00 5.9 24 Oeste 49 Oeste 0 -- -- 95
2020-01-16 23:00:00 6.2 28 Oeste 50 Oeste 0 -- -- 93
2020-01-16 22:00:00 6.6 19 Oeste 36 Oeste 0 -- -- 85
2020-01-16 21:00:00 6.9 22 Oeste 38 Oeste 0 -- -- 81
2020-01-16 20:00:00 6.7 23 Oeste 40 Oeste 0 -- -- 81
2020-01-16 19:00:00 7.2 21 Oeste 41 Sudoeste 0 -- -- 77
2020-01-16 18:00:00 7.5 12 Oeste 39 Oeste 0 -- -- 78
2020-01-16 17:00:00 8.3 23 Oeste 52 Oeste 0 -- -- 71
2020-01-16 16:00:00 9.7 32 Oeste 58 Oeste 0 -- -- 65
2020-01-16 15:00:00 10 28 Oeste 57 Oeste 0 -- -- 70
2020-01-16 14:00:00 10.2 27 Oeste 54 Oeste 0 -- -- 73
2020-01-16 13:00:00 9.1 25 Oeste 44 Oeste 0 -- -- 84
2020-01-16 12:00:00 7.5 22 Oeste 38 Oeste 0 -- -- 98
2020-01-16 11:00:00 7 19 Oeste 31 Oeste 0 -- -- 99
2020-01-16 10:00:00 6.8 19 Oeste 33 Oeste 0 -- -- 98
2020-01-16 09:00:00 6.7 14 Oeste 35 Oeste 0 -- -- 98
2020-01-16 08:00:00 6.6 17 Oeste 30 Oeste 0 -- -- 99
2020-01-16 07:00:00 6.4 12 Oeste 24 Oeste 0 -- -- 100
2020-01-16 06:00:00 6.5 13 Oeste 22 Oeste 0 -- -- 99
2020-01-16 05:00:00 6.7 13 Oeste 24 Oeste 0 -- -- 100
2020-01-16 04:00:00 7 14 Oeste 28 Sudoeste 0 -- -- 99
2020-01-16 03:00:00 7.1 15 Oeste 24 Oeste 0 -- -- 99
2020-01-16 02:00:00 6.9 13 Oeste 20 Oeste 0 -- -- 100
2020-01-16 01:00:00 7 10 Oeste 18 Oeste 0 -- -- 99
2020-01-16 00:00:00 6.9 5 Sudoeste 16 Oeste 0 -- -- 99
2020-01-15 23:00:00 6.6 6 Sudoeste 15 Oeste 0 -- -- 99
2020-01-15 22:00:00 6.5 6 Sudoeste 16 Sudoeste 0 -- -- 99
2020-01-15 21:00:00 5.8 6 Sudoeste 9 Sudoeste 0 -- -- 98
2020-01-15 20:00:00 6.1 5 Sudoeste 12 Sudoeste 0 -- -- 97
2020-01-15 19:00:00 7 7 Oeste 15 Oeste 0 -- -- 94
2020-01-15 18:00:00 7.8 10 Oeste 21 Oeste 0 -- -- 91
2020-01-15 17:00:00 8.1 15 Oeste 31 Oeste 0 -- -- 88
2020-01-15 16:00:00 8 18 Oeste 39 Oeste 0 -- -- 87
2020-01-15 15:00:00 7.7 22 Oeste 38 Oeste 0 -- -- 85
2020-01-15 14:00:00 8 23 Oeste 39 Oeste 0 -- -- 85
2020-01-15 13:00:00 7.4 27 Oeste 43 Noroeste 0 -- -- 85
2020-01-15 12:00:00 6.3 31 Oeste 53 Noroeste 0 -- -- 88
2020-01-15 11:00:00 5.6 26 Oeste 42 Oeste 0.2 -- -- 96
2020-01-15 10:00:00 5.5 21 Oeste 40 Oeste 0 -- -- 96
2020-01-15 09:00:00 5.2 19 Oeste 36 Oeste 0 -- -- 96
2020-01-15 08:00:00 5 19 Oeste 33 Oeste 0 -- -- 95
2020-01-15 07:00:00 4.8 15 Oeste 30 Oeste 0 -- -- 97
2020-01-15 06:00:00 4.9 15 Oeste 35 Oeste 0 -- -- 95
2020-01-15 05:00:00 5 23 Oeste 39 Oeste 0 -- -- 96
2020-01-15 04:00:00 5.1 19 Oeste 42 Oeste 0 -- -- 97
2020-01-15 03:00:00 5.1 24 Oeste 43 Oeste 0 -- -- 97
2020-01-15 02:00:00 4.9 24 Oeste 46 Oeste 0 -- -- 99
2020-01-15 01:00:00 4.6 22 Oeste 41 Oeste 0 -- -- 98
2020-01-15 00:00:00 4.6 26 Oeste 42 Oeste 0 -- -- 96
2020-01-14 23:00:00 4.4 24 Oeste 36 Sudoeste 0 -- -- 97
2020-01-14 22:00:00 4.5 14 Oeste 29 Oeste 0 -- -- 94
2020-01-14 21:00:00 4.7 16 Oeste 33 Oeste 0 -- -- 93
2020-01-14 20:00:00 5.1 21 Oeste 35 Oeste 0 -- -- 92
2020-01-14 19:00:00 5.4 17 Oeste 34 Oeste 0 -- -- 92
2020-01-14 18:00:00 5.7 14 Oeste 26 Oeste 0 -- -- 88
2020-01-14 17:00:00 5.7 15 Oeste 31 Oeste 0 -- -- 87
2020-01-14 16:00:00 5.5 14 Oeste 31 Oeste 0 -- -- 90
2020-01-14 15:00:00 5 18 Oeste 29 Oeste 0 -- -- 93
2020-01-14 14:00:00 4.6 14 Oeste 26 Oeste 0 -- -- 94
2020-01-14 13:00:00 3.4 15 Oeste 24 Oeste 0 -- -- 96
2020-01-14 12:00:00 2.5 10 Oeste 22 Oeste 0 -- -- 99
2020-01-14 11:00:00 2 12 Oeste 23 Sudoeste 0 -- -- 100
2020-01-14 10:00:00 1.4 8 Sudoeste 15 Sudoeste 0 -- -- 100
2020-01-14 09:00:00 1.4 7 Sudoeste 17 Oeste 0 -- -- 100
2020-01-14 08:00:00 1.5 9 Oeste 21 Oeste 0 -- -- 100
2020-01-14 07:00:00 1.5 7 Oeste 15 Oeste 0.2 -- -- 100
2020-01-14 06:00:00 0.8 2 Oeste 10 Oeste 0 -- -- 100
2020-01-14 05:00:00 0.4 0 Calma -- -- 0 -- -- 100
2020-01-14 04:00:00 0.3 0 Calma -- -- 0 -- -- 100
2020-01-14 03:00:00 0 0 Calma 5 Noroeste 0 -- -- 100
2020-01-14 02:00:00 -0.1 0 Calma 6 Noroeste 0 -- -- 100
2020-01-14 01:00:00 -0.2 0 Calma 9 Oeste 0 -- -- 100
2020-01-14 00:00:00 -0.3 6 Oeste 12 Oeste 0 -- -- 100
2020-01-13 23:00:00 -0.7 0 Calma -- -- 0 -- -- 100
2020-01-13 22:00:00 -1 0 Calma -- -- 0 -- -- 100
2020-01-13 21:00:00 -1.3 0 Calma -- -- 0 -- -- 100
2020-01-13 20:00:00 -1.6 0 Calma 4 Noroeste 0 -- -- 100
2020-01-13 19:00:00 -1.9 0 Calma 10 Oeste 0 -- -- 99
2020-01-13 18:00:00 -1.8 5 Oeste 12 Oeste 0 -- -- 98
2020-01-13 17:00:00 -1.4 6 Oeste 16 Oeste 0 -- -- 96
2020-01-13 16:00:00 -0.6 13 Oeste 18 Oeste 0 -- -- 92
2020-01-13 15:00:00 0.3 8 Oeste 18 Oeste 0 -- -- 87
2020-01-13 14:00:00 0 12 Oeste 17 Oeste 0 -- -- 88
2020-01-13 13:00:00 -0.4 3 Oeste 6 Oeste 0 -- -- 99
2020-01-13 12:00:00 -1.4 5 Oeste 9 Noroeste 0.2 -- -- 100
2020-01-13 11:00:00 -2.9 0 Calma 0 Calma 0 -- -- 100
2020-01-13 10:00:00 -4.6 0 Calma 4 Sudoeste 0 -- -- 99
2020-01-13 09:00:00 -5.6 0 Calma -- -- 0 -- -- 97
2020-01-13 08:00:00 -5.7 0 Calma -- -- 0 -- -- 97
2020-01-13 07:00:00 -5.2 0 Calma -- -- 0 -- -- 98
2020-01-13 06:00:00 -5.1 0 Calma -- -- 0 -- -- 98
2020-01-13 05:00:00 -5.3 0 Calma -- -- 0 -- -- 98
2020-01-13 04:00:00 -3.6 0 Calma -- -- 0 -- -- 95
2020-01-13 03:00:00 -3.1 0 Calma -- -- 0 -- -- 95
2020-01-13 02:00:00 -2.7 0 Calma 6 Noroeste 0 -- -- 96
2020-01-13 01:00:00 -2.4 3 Noroeste 5 Noroeste 0 -- -- 97
2020-01-13 00:00:00 -2 0 Calma -- -- 0 -- -- 99
2020-01-12 23:00:00 -2 0 Calma 3 Norte 0 -- -- 99
2020-01-12 22:00:00 -2.4 3 Nordeste 6 Nordeste 0 -- -- 98
2020-01-12 21:00:00 -1.8 0 Calma -- -- 0 -- -- 99
2020-01-12 20:00:00 -2.3 0 Calma 5 Noroeste 0 -- -- 96
2020-01-12 19:00:00 -0.7 0 Calma 5 Noroeste 0 -- -- 94
2020-01-12 18:00:00 2.8 0 Calma 5 Sudeste 0 -- -- 92
2020-01-12 17:00:00 4.8 3 Sur 8 Sudeste 0 -- -- 93
2020-01-12 16:00:00 4.1 4 Sudeste 9 Sudeste 0 -- -- 94
2020-01-12 15:00:00 3.8 5 Sudeste 8 Sudeste 0 -- -- 92
2020-01-12 14:00:00 2.8 4 Sur 9 Sur 0 -- -- 96
2020-01-12 13:00:00 2.5 5 Sudeste 8 Sudeste 0 -- -- 97
2020-01-12 12:00:00 -0.5 0 Calma -- -- 0 -- -- 100
2020-01-12 11:00:00 -2.5 0 Calma -- -- 0 -- -- 100
2020-01-12 10:00:00 -4.2 0 Calma -- -- 0 -- -- 99
2020-01-12 09:00:00 -4.3 0 Calma -- -- 0 -- -- 98
2020-01-12 08:00:00 -4.4 0 Calma -- -- 0 -- -- 98
2020-01-12 07:00:00 -4.1 0 Calma -- -- 0 -- -- 98
2020-01-12 06:00:00 -3.9 0 Calma -- -- 0 -- -- 99
2020-01-12 05:00:00 -3.8 0 Calma -- -- 0 -- -- 99
2020-01-12 04:00:00 -3.3 0 Calma -- -- 0 -- -- 98
2020-01-12 03:00:00 -2.7 0 Calma -- -- 0 -- -- 97
2020-01-12 02:00:00 -1.2 0 Calma 12 Noroeste 0 -- -- 94
2020-01-12 01:00:00 0.1 5 Noroeste 15 Noroeste 0 -- -- 96
2020-01-12 00:00:00 0.6 10 Noroeste 16 Noroeste 0 -- -- 95
2020-01-11 23:00:00 1 8 Noroeste 13 Noroeste 0 -- -- 94
2020-01-11 22:00:00 0 7 Noroeste 14 Noroeste 0 -- -- 93
2020-01-11 21:00:00 0.6 8 Noroeste 13 Noroeste 0 -- -- 92
2020-01-11 20:00:00 1.9 8 Noroeste 15 Noroeste 0 -- -- 88
2020-01-11 19:00:00 2.6 11 Noroeste 16 Noroeste 0 -- -- 87
2020-01-11 18:00:00 5.1 9 Noroeste 17 Oeste 0 -- -- 77
2020-01-11 17:00:00 6.9 10 Noroeste 17 Noroeste 0 -- -- 70
2020-01-11 16:00:00 7 10 Noroeste 21 Oeste 0 -- -- 69
2020-01-11 15:00:00 6.8 8 Noroeste 18 Noroeste 0 -- -- 70
2020-01-11 14:00:00 6.1 10 Noroeste 20 Noroeste 0 -- -- 74
2020-01-11 13:00:00 4.9 8 Noroeste 14 Noroeste 0 -- -- 79
2020-01-11 12:00:00 4.3 3 Norte 10 Noroeste 0 -- -- 81
2020-01-11 11:00:00 2.6 0 Calma 4 Este 0 -- -- 89
2020-01-11 10:00:00 -0.8 0 Calma 5 Nordeste 0 -- -- 100
2020-01-11 09:00:00 -3.4 0 Calma -- -- 0 -- -- 97
2020-01-11 08:00:00 -2.9 0 Calma -- -- 0 -- -- 97
2020-01-11 07:00:00 -3.2 0 Calma -- -- 0 -- -- 97
2020-01-11 06:00:00 -2.5 0 Calma 8 Nordeste 0 -- -- 95
2020-01-11 05:00:00 -0.8 0 Calma 13 Nordeste 0 -- -- 95
2020-01-11 04:00:00 -0.5 7 Nordeste 17 Nordeste 0 -- -- 95
2020-01-11 03:00:00 0 14 Nordeste 17 Nordeste 0 -- -- 93
2020-01-11 02:00:00 -0.7 7 Nordeste 10 Nordeste 0 -- -- 95
2020-01-11 01:00:00 -0.9 5 Nordeste 7 Nordeste 0 -- -- 93
2020-01-11 00:00:00 -0.8 4 Nordeste 9 Nordeste 0 -- -- 93
2020-01-10 23:00:00 -0.4 4 Este 9 Nordeste 0 -- -- 92
2020-01-10 22:00:00 0.3 6 Nordeste 10 Nordeste 0 -- -- 92
2020-01-10 21:00:00 0.3 0 Calma 5 Sur 0 -- -- 90
2020-01-10 20:00:00 1 0 Calma 6 Sur 0 -- -- 87
2020-01-10 19:00:00 2.6 0 Calma 8 Sur 0 -- -- 79
2020-01-10 18:00:00 5.3 6 Sudoeste 8 Sudoeste 0 -- -- 68
2020-01-10 17:00:00 6.5 8 Sur 10 Sur 0 -- -- 70
2020-01-10 16:00:00 7.5 0 Calma 9 Oeste 0 -- -- 62
2020-01-10 15:00:00 7.5 4 Sudoeste 15 Sudoeste 0 -- -- 63
2020-01-10 14:00:00 7.1 7 Sur 12 Sudeste 0 -- -- 64
2020-01-10 13:00:00 6.6 6 Sur 15 Sudeste 0 -- -- 64
2020-01-10 12:00:00 5.5 2 Este 11 Nordeste 0 -- -- 67
2020-01-10 11:00:00 4.3 6 Este 10 Nordeste 0 -- -- 78
2020-01-10 10:00:00 2.5 5 Este 12 Este 0 -- -- 85
2020-01-10 09:00:00 1.4 2 Norte 11 Noroeste 0 -- -- 85
2020-01-10 08:00:00 0.5 3 Norte 12 Noroeste 0 -- -- 83
2020-01-10 07:00:00 0.8 7 Noroeste 10 Noroeste 0 -- -- 83
2020-01-10 06:00:00 0.2 4 Noroeste 13 Norte 0 -- -- 84
2020-01-10 05:00:00 0.7 5 Norte 12 Norte 0 -- -- 85
2020-01-10 04:00:00 -0.2 0 Calma 10 Noroeste 0 -- -- 90
2020-01-10 03:00:00 0.1 6 Noroeste 18 Oeste 0 -- -- 90
2020-01-10 02:00:00 0 0 Calma 16 Norte 0 -- -- 85
2020-01-10 01:00:00 2.2 7 Norte 21 Nordeste 0 -- -- 78
2020-01-10 00:00:00 2 9 Norte 21 Norte 0 -- -- 84
2020-01-09 23:00:00 1.9 8 Noroeste 19 Noroeste 0 -- -- 89
2020-01-09 22:00:00 2.6 9 Noroeste 26 Noroeste 0 -- -- 91
2020-01-09 21:00:00 3.4 13 Noroeste 31 Oeste 0 -- -- 88
2020-01-09 20:00:00 4.8 21 Noroeste 35 Noroeste 0 -- -- 83
2020-01-09 19:00:00 5.7 22 Noroeste 34 Noroeste 0 -- -- 95
2020-01-09 18:00:00 6.3 16 Oeste 26 Noroeste 0 -- -- 100
2020-01-09 17:00:00 5.2 0 Calma 9 Oeste 0 -- -- 100
2020-01-09 16:00:00 4.6 6 Oeste 21 Oeste 0 -- -- 98
2020-01-09 15:00:00 6.8 12 Sudoeste 26 Sudoeste 0 -- -- 85
2020-01-09 14:00:00 7.9 17 Oeste 27 Oeste 0 -- -- 79
2020-01-09 13:00:00 7 10 Oeste 17 Oeste 0 -- -- 77
2020-01-09 12:00:00 5.5 10 Oeste 15 Noroeste 0 -- -- 80
2020-01-09 11:00:00 5.4 5 Oeste 9 Oeste 0 -- -- 79
2020-01-09 10:00:00 3.2 0 Calma 11 Oeste 0 -- -- 85
2020-01-09 09:00:00 2.6 0 Calma 10 Noroeste 0 -- -- 85
2020-01-09 08:00:00 2.2 6 Noroeste 13 Noroeste 0 -- -- 85
2020-01-09 07:00:00 0.3 0 Calma 7 Noroeste 0 -- -- 91
2020-01-09 06:00:00 0.5 5 Noroeste 10 Noroeste 0 -- -- 90
2020-01-09 05:00:00 0.3 0 Calma 3 Noroeste 0 -- -- 84
2020-01-09 04:00:00 1.2 4 Noroeste 7 Oeste 0 -- -- 83
2020-01-09 03:00:00 2.5 2 Noroeste 6 Noroeste 0 -- -- 79
2020-01-09 02:00:00 4.7 3 Noroeste 14 Noroeste 0 -- -- 70
2020-01-09 01:00:00 5.5 6 Noroeste 15 Noroeste 0 -- -- 68
2020-01-09 00:00:00 4.9 7 Noroeste 14 Noroeste 0 -- -- 62
2020-01-08 23:00:00 6.4 8 Noroeste 13 Noroeste 0 -- -- 58
2020-01-08 22:00:00 5.9 10 Noroeste 14 Noroeste 0 -- -- 62
2020-01-08 21:00:00 5.5 8 Noroeste 13 Noroeste 0 -- -- 62
2020-01-08 20:00:00 5.8 9 Noroeste 12 Noroeste 0 -- -- 64
2020-01-08 19:00:00 8 9 Noroeste 13 Noroeste 0 -- -- 59
2020-01-08 18:00:00 10.3 9 Noroeste 15 Noroeste 0 -- -- 55
2020-01-08 17:00:00 12.9 9 Noroeste 18 Noroeste 0 -- -- 43
2020-01-08 16:00:00 13.8 11 Noroeste 16 Noroeste 0 -- -- 37
2020-01-08 15:00:00 14.1 9 Oeste 15 Oeste 0 -- -- 35
2020-01-08 14:00:00 14.1 6 Sudoeste 11 Oeste 0 -- -- 32
2020-01-08 13:00:00 12.7 4 Sudeste 6 Sudeste 0 -- -- 37
2020-01-08 12:00:00 11.2 5 Sudeste 8 Sudeste 0 -- -- 40
2020-01-08 11:00:00 9.2 6 Nordeste 12 Nordeste 0 -- -- 50
2020-01-08 10:00:00 4.4 4 Nordeste 12 Nordeste 0 -- -- 70
2020-01-08 09:00:00 4.8 10 Nordeste 12 Nordeste 0 -- -- 58
2020-01-08 08:00:00 -0.3 5 Nordeste 7 Nordeste 0 -- -- 89
2020-01-08 07:00:00 -0.4 3 Nordeste 8 Nordeste 0 -- -- 90
2020-01-08 06:00:00 -0.1 3 Nordeste 5 Nordeste 0 -- -- 90
2020-01-08 05:00:00 0.7 4 Nordeste 9 Nordeste 0 -- -- 87
2020-01-08 04:00:00 2.1 6 Nordeste 9 Nordeste 0 -- -- 82
2020-01-08 03:00:00 -0.5 4 Nordeste 13 Nordeste 0 -- -- 89
2020-01-08 02:00:00 1.9 9 Nordeste 12 Nordeste 0 -- -- 80
2020-01-08 01:00:00 -0.5 0 Calma -- -- 0 -- -- 93
2020-01-08 00:00:00 -0.3 0 Calma -- -- 0 -- -- 90
2020-01-07 23:00:00 0.1 0 Calma -- -- 0 -- -- 89
2020-01-07 22:00:00 1.6 0 Calma 12 Noroeste 0 -- -- 83
2020-01-07 21:00:00 3.5 9 Noroeste 15 Noroeste 0 -- -- 80
2020-01-07 20:00:00 2.8 8 Noroeste 13 Norte 0 -- -- 88
2020-01-07 19:00:00 1.8 4 Noroeste 8 Noroeste 0 -- -- 79
2020-01-07 18:00:00 5.6 6 Noroeste 7 Oeste 0 -- -- 66
2020-01-07 17:00:00 8.4 4 Noroeste 12 Oeste 0 -- -- 54
2020-01-07 16:00:00 8.5 9 Oeste 13 Oeste 0 -- -- 55
2020-01-07 15:00:00 9.2 8 Noroeste 12 Oeste 0 -- -- 59
2020-01-07 14:00:00 9.4 8 Oeste 12 Oeste 0 -- -- 46
2020-01-07 13:00:00 8.3 6 Oeste 9 Oeste 0 -- -- 56
2020-01-07 12:00:00 6 7 Oeste 10 Oeste 0 -- -- 78
2020-01-07 11:00:00 2.6 0 Calma 6 Noroeste 0.2 -- -- 96
2020-01-07 10:00:00 -1.9 3 Noroeste 8 Nordeste 0 -- -- 94
2020-01-07 09:00:00 -2.5 3 Nordeste 5 Nordeste 0 -- -- 93
2020-01-07 08:00:00 -2.6 0 Calma 6 Norte 0 -- -- 93
2020-01-07 07:00:00 -2.1 4 Norte 7 Norte 0 -- -- 93
2020-01-07 06:00:00 -0.1 5 Norte 9 Nordeste 0 -- -- 88
2020-01-07 05:00:00 -0.1 8 Nordeste 12 Nordeste 0 -- -- 88
2020-01-07 04:00:00 -3.2 0 Calma -- -- 0 -- -- 99
2020-01-07 03:00:00 -3.9 0 Calma -- -- 0 -- -- 99
2020-01-07 02:00:00 -3.9 0 Calma -- -- 0 -- -- 100
2020-01-07 01:00:00 -3.6 0 Calma -- -- 0 -- -- 100
2020-01-07 00:00:00 -3 0 Calma -- -- 0 -- -- 100
2020-01-06 23:00:00 -2.4 0 Calma -- -- 0 -- -- 100
2020-01-06 22:00:00 -1.5 0 Calma -- -- 0 -- -- 100
2020-01-06 21:00:00 -1.1 0 Calma 6 Este 0 -- -- 100
2020-01-06 20:00:00 -1.2 0 Calma 12 Este 0 -- -- 100
2020-01-06 19:00:00 -1.9 0 Calma 7 Noroeste 0 -- -- 99
2020-01-06 18:00:00 -1 3 Noroeste 9 Noroeste 0 -- -- 98
2020-01-06 17:00:00 -0.2 4 Oeste 12 Oeste 0 -- -- 97
2020-01-06 16:00:00 0.5 9 Oeste 16 Oeste 0 -- -- 95
2020-01-06 15:00:00 2.5 8 Oeste 14 Oeste 0 -- -- 90
2020-01-06 14:00:00 1.7 4 Oeste 7 Oeste 0 -- -- 95
2020-01-06 13:00:00 -0.6 3 Oeste 9 Oeste 0 -- -- 99
2020-01-06 12:00:00 -2.5 0 Calma -- -- 0 -- -- 97
2020-01-06 11:00:00 -3.3 0 Calma -- -- 0 -- -- 99
2020-01-06 10:00:00 -4.9 0 Calma -- -- 0 -- -- 98